sensor_id;sensor_type;location;lat;lon;timestamp;P1;durP1;ratioP1;P2;durP2;ratioP2
40588;SDS011;26297;49.450;6.640;2022-08-19T03:01:01;7.85;;;6.15;;
40588;SDS011;26297;49.450;6.640;2022-08-19T03:04:05;7.18;;;6.28;;
40588;SDS011;26297;49.450;6.640;2022-08-19T03:07:13;6.22;;;5.63;;
40588;SDS011;26297;49.450;6.640;2022-08-19T03:10:17;7.00;;;6.28;;
40588;SDS011;26297;49.450;6.640;2022-08-19T03:13:20;7.03;;;6.25;;
40588;SDS011;26297;49.450;6.640;2022-08-19T03:16:25;8.55;;;6.63;;
40588;SDS011;26297;49.450;6.640;2022-08-19T03:19:30;9.50;;;6.65;;
40588;SDS011;26297;49.450;6.640;2022-08-19T03:22:33;6.75;;;6.05;;
40588;SDS011;26297;49.450;6.640;2022-08-19T03:25:38;7.65;;;6.70;;
40588;SDS011;26297;49.450;6.640;2022-08-19T03:28:44;6.90;;;5.97;;
40588;SDS011;26297;49.450;6.640;2022-08-19T03:31:52;6.15;;;5.55;;
40588;SDS011;26297;49.450;6.640;2022-08-19T03:34:56;7.75;;;6.93;;
40588;SDS011;26297;49.450;6.640;2022-08-19T03:38:00;7.38;;;6.63;;
40588;SDS011;26297;49.450;6.640;2022-08-19T03:41:07;7.57;;;6.63;;
40588;SDS011;26297;49.450;6.640;2022-08-19T03:44:14;7.10;;;6.13;;
40588;SDS011;26297;49.450;6.640;2022-08-19T03:47:23;11.43;;;7.07;;
40588;SDS011;26297;49.450;6.640;2022-08-19T03:50:26;7.43;;;6.60;;
40588;SDS011;26297;49.450;6.640;2022-08-19T03:53:30;8.15;;;6.18;;
40588;SDS011;26297;49.450;6.640;2022-08-19T03:56:36;7.82;;;6.10;;
40588;SDS011;26297;49.450;6.640;2022-08-19T03:59:40;7.80;;;6.82;;
40588;SDS011;26297;49.450;6.640;2022-08-19T04:02:43;7.93;;;6.35;;
40588;SDS011;26297;49.450;6.640;2022-08-19T04:05:46;7.43;;;6.57;;
40588;SDS011;26297;49.450;6.640;2022-08-19T04:08:51;7.82;;;6.55;;
40588;SDS011;26297;49.450;6.640;2022-08-19T04:11:56;6.55;;;5.95;;
40588;SDS011;26297;49.450;6.640;2022-08-19T04:15:00;7.13;;;6.43;;
40588;SDS011;26297;49.450;6.640;2022-08-19T04:18:03;9.02;;;6.82;;
40588;SDS011;26297;49.450;6.640;2022-08-19T04:21:07;7.53;;;6.05;;
40588;SDS011;26297;49.450;6.640;2022-08-19T04:24:11;6.97;;;6.28;;
40588;SDS011;26297;49.450;6.640;2022-08-19T04:27:15;7.53;;;5.90;;
40588;SDS011;26297;49.450;6.640;2022-08-19T04:30:18;8.00;;;6.13;;
40588;SDS011;26297;49.450;6.640;2022-08-19T04:33:25;8.32;;;6.80;;
40588;SDS011;26297;49.450;6.640;2022-08-19T04:36:31;7.03;;;6.07;;
40588;SDS011;26297;49.450;6.640;2022-08-19T04:39:38;6.15;;;5.45;;
40588;SDS011;26297;49.450;6.640;2022-08-19T04:43:01;8.10;;;6.35;;
40588;SDS011;26297;49.450;6.640;2022-08-19T04:46:05;7.57;;;6.13;;
40588;SDS011;26297;49.450;6.640;2022-08-19T04:49:09;7.50;;;6.75;;
40588;SDS011;26297;49.450;6.640;2022-08-19T04:52:12;7.35;;;6.07;;
40588;SDS011;26297;49.450;6.640;2022-08-19T04:55:15;8.38;;;6.13;;
40588;SDS011;26297;49.450;6.640;2022-08-19T04:58:20;7.85;;;6.20;;
40588;SDS011;26297;49.450;6.640;2022-08-19T05:01:24;8.30;;;6.35;;
40588;SDS011;26297;49.450;6.640;2022-08-19T05:04:30;10.48;;;6.63;;
40588;SDS011;26297;49.450;6.640;2022-08-19T05:07:35;6.93;;;6.32;;
40588;SDS011;26297;49.450;6.640;2022-08-19T05:10:39;7.50;;;6.35;;
40588;SDS011;26297;49.450;6.640;2022-08-19T05:13:43;7.63;;;6.50;;
40588;SDS011;26297;49.450;6.640;2022-08-19T05:16:47;7.57;;;6.40;;
40588;SDS011;26297;49.450;6.640;2022-08-19T05:19:50;6.97;;;6.28;;
40588;SDS011;26297;49.450;6.640;2022-08-19T05:23:12;6.07;;;5.47;;
40588;SDS011;26297;49.450;6.640;2022-08-19T05:26:17;7.65;;;6.85;;
40588;SDS011;26297;49.450;6.640;2022-08-19T05:29:20;7.10;;;6.22;;
40588;SDS011;26297;49.450;6.640;2022-08-19T05:32:24;6.82;;;6.15;;
40588;SDS011;26297;49.450;6.640;2022-08-19T05:35:28;10.20;;;6.55;;
40588;SDS011;26297;49.450;6.640;2022-08-19T05:38:34;6.97;;;6.22;;
40588;SDS011;26297;49.450;6.640;2022-08-19T05:41:45;7.28;;;6.13;;
40588;SDS011;26297;49.450;6.640;2022-08-19T05:44:53;8.35;;;6.25;;
40588;SDS011;26297;49.450;6.640;2022-08-19T05:47:56;6.93;;;6.28;;
40588;SDS011;26297;49.450;6.640;2022-08-19T05:51:04;7.63;;;6.13;;
40588;SDS011;26297;49.450;6.640;2022-08-19T05:54:09;6.25;;;5.60;;
40588;SDS011;26297;49.450;6.640;2022-08-19T05:57:14;6.53;;;5.90;;
40588;SDS011;26297;49.450;6.640;2022-08-19T06:00:18;8.15;;;6.05;;
40588;SDS011;26297;49.450;6.640;2022-08-19T06:03:21;7.45;;;6.35;;
40588;SDS011;26297;49.450;6.640;2022-08-19T06:06:24;7.10;;;6.40;;
40588;SDS011;26297;49.450;6.640;2022-08-19T06:09:27;7.97;;;5.90;;
40588;SDS011;26297;49.450;6.640;2022-08-19T06:12:32;6.95;;;6.25;;
40588;SDS011;26297;49.450;6.640;2022-08-19T06:15:37;6.22;;;5.63;;
40588;SDS011;26297;49.450;6.640;2022-08-19T06:18:40;6.88;;;5.43;;
40588;SDS011;26297;49.450;6.640;2022-08-19T06:21:44;6.55;;;5.90;;
40588;SDS011;26297;49.450;6.640;2022-08-19T06:24:48;5.82;;;5.20;;
40588;SDS011;26297;49.450;6.640;2022-08-19T06:27:54;6.43;;;5.80;;
40588;SDS011;26297;49.450;6.640;2022-08-19T06:30:57;6.40;;;5.40;;
40588;SDS011;26297;49.450;6.640;2022-08-19T06:34:01;5.88;;;5.32;;
40588;SDS011;26297;49.450;6.640;2022-08-19T06:37:06;6.05;;;5.45;;
40588;SDS011;26297;49.450;6.640;2022-08-19T06:40:10;5.95;;;5.32;;
40588;SDS011;26297;49.450;6.640;2022-08-19T06:43:14;6.93;;;5.82;;
40588;SDS011;26297;49.450;6.640;2022-08-19T06:46:18;5.90;;;5.38;;
40588;SDS011;26297;49.450;6.640;2022-08-19T06:49:23;6.63;;;5.55;;
40588;SDS011;26297;49.450;6.640;2022-08-19T06:52:27;5.40;;;4.90;;
40588;SDS011;26297;49.450;6.640;2022-08-19T06:55:36;6.60;;;5.70;;
40588;SDS011;26297;49.450;6.640;2022-08-19T06:58:39;7.25;;;5.85;;
40588;SDS011;26297;49.450;6.640;2022-08-19T07:01:45;10.65;;;6.38;;
40588;SDS011;26297;49.450;6.640;2022-08-19T07:04:50;8.20;;;6.32;;
40588;SDS011;26297;49.450;6.640;2022-08-19T07:07:53;7.45;;;6.20;;
40588;SDS011;26297;49.450;6.640;2022-08-19T07:10:56;6.78;;;5.90;;
40588;SDS011;26297;49.450;6.640;2022-08-19T07:14:00;9.05;;;6.05;;
40588;SDS011;26297;49.450;6.640;2022-08-19T07:17:08;9.27;;;6.63;;
40588;SDS011;26297;49.450;6.640;2022-08-19T07:20:12;8.70;;;6.35;;
40588;SDS011;26297;49.450;6.640;2022-08-19T07:23:16;10.88;;;7.45;;
40588;SDS011;26297;49.450;6.640;2022-08-19T07:26:29;7.30;;;6.25;;
40588;SDS011;26297;49.450;6.640;2022-08-19T07:29:35;7.20;;;5.93;;
40588;SDS011;26297;49.450;6.640;2022-08-19T07:32:39;9.20;;;6.43;;
40588;SDS011;26297;49.450;6.640;2022-08-19T07:35:43;7.97;;;6.28;;
40588;SDS011;26297;49.450;6.640;2022-08-19T07:38:47;6.95;;;6.25;;
40588;SDS011;26297;49.450;6.640;2022-08-19T07:41:53;7.93;;;6.45;;
40588;SDS011;26297;49.450;6.640;2022-08-19T07:44:57;7.40;;;6.50;;
40588;SDS011;26297;49.450;6.640;2022-08-19T07:48:01;7.65;;;6.45;;
40588;SDS011;26297;49.450;6.640;2022-08-19T07:51:05;7.82;;;6.20;;
40588;SDS011;26297;49.450;6.640;2022-08-19T07:54:10;9.98;;;7.28;;
40588;SDS011;26297;49.450;6.640;2022-08-19T07:57:14;7.90;;;6.05;;
40588;SDS011;26297;49.450;6.640;2022-08-19T08:00:18;8.85;;;7.57;;
40588;SDS011;26297;49.450;6.640;2022-08-19T08:03:21;9.02;;;8.10;;
40588;SDS011;26297;49.450;6.640;2022-08-19T08:06:44;8.32;;;6.53;;
40588;SDS011;26297;49.450;6.640;2022-08-19T08:10:06;7.88;;;6.57;;
40588;SDS011;26297;49.450;6.640;2022-08-19T08:13:10;8.20;;;6.72;;
40588;SDS011;26297;49.450;6.640;2022-08-19T08:16:13;11.80;;;8.15;;
40588;SDS011;26297;49.450;6.640;2022-08-19T08:19:17;10.55;;;8.23;;
40588;SDS011;26297;49.450;6.640;2022-08-19T08:22:21;8.63;;;6.32;;
40588;SDS011;26297;49.450;6.640;2022-08-19T08:25:45;11.02;;;9.35;;
40588;SDS011;26297;49.450;6.640;2022-08-19T08:28:48;9.05;;;7.43;;
40588;SDS011;26297;49.450;6.640;2022-08-19T08:31:52;8.30;;;7.43;;
40588;SDS011;26297;49.450;6.640;2022-08-19T08:34:56;10.68;;;8.52;;
40588;SDS011;26297;49.450;6.640;2022-08-19T08:37:59;10.32;;;9.15;;
40588;SDS011;26297;49.450;6.640;2022-08-19T08:41:07;13.00;;;10.55;;
40588;SDS011;26297;49.450;6.640;2022-08-19T08:47:56;10.45;;;8.57;;
40588;SDS011;26297;49.450;6.640;2022-08-19T08:51:04;10.63;;;9.20;;
40588;SDS011;26297;49.450;6.640;2022-08-19T08:54:13;9.95;;;8.60;;
40588;SDS011;26297;49.450;6.640;2022-08-19T08:57:44;9.38;;;7.82;;
40588;SDS011;26297;49.450;6.640;2022-08-19T09:00:56;11.70;;;7.68;;
40588;SDS011;26297;49.450;6.640;2022-08-19T09:04:02;9.02;;;7.63;;
40588;SDS011;26297;49.450;6.640;2022-08-19T09:07:34;8.60;;;7.75;;
40588;SDS011;26297;49.450;6.640;2022-08-19T09:11:00;12.20;;;8.70;;
40588;SDS011;26297;49.450;6.640;2022-08-19T09:17:35;8.80;;;7.90;;
40588;SDS011;26297;49.450;6.640;2022-08-19T09:20:40;8.63;;;6.78;;
40588;SDS011;26297;49.450;6.640;2022-08-19T09:23:43;8.13;;;7.32;;
40588;SDS011;26297;49.450;6.640;2022-08-19T09:26:47;8.85;;;7.95;;
40588;SDS011;26297;49.450;6.640;2022-08-19T09:29:51;11.13;;;8.02;;
40588;SDS011;26297;49.450;6.640;2022-08-19T09:32:56;9.52;;;8.45;;
40588;SDS011;26297;49.450;6.640;2022-08-19T09:36:03;8.13;;;7.13;;
40588;SDS011;26297;49.450;6.640;2022-08-19T09:39:10;11.63;;;9.43;;
40588;SDS011;26297;49.450;6.640;2022-08-19T09:42:14;8.40;;;7.60;;
40588;SDS011;26297;49.450;6.640;2022-08-19T09:45:19;10.93;;;8.18;;
40588;SDS011;26297;49.450;6.640;2022-08-19T09:48:24;10.30;;;7.35;;
40588;SDS011;26297;49.450;6.640;2022-08-19T09:51:28;10.40;;;7.45;;
40588;SDS011;26297;49.450;6.640;2022-08-19T09:54:31;10.70;;;8.45;;
40588;SDS011;26297;49.450;6.640;2022-08-19T09:57:35;10.25;;;7.65;;
40588;SDS011;26297;49.450;6.640;2022-08-19T10:00:38;9.15;;;7.13;;
40588;SDS011;26297;49.450;6.640;2022-08-19T10:03:41;7.97;;;7.18;;
40588;SDS011;26297;49.450;6.640;2022-08-19T10:06:44;7.57;;;6.88;;
40588;SDS011;26297;49.450;6.640;2022-08-19T10:09:50;9.30;;;6.55;;
40588;SDS011;26297;49.450;6.640;2022-08-19T10:12:53;9.63;;;7.57;;
40588;SDS011;26297;49.450;6.640;2022-08-19T10:16:01;9.52;;;7.07;;
40588;SDS011;26297;49.450;6.640;2022-08-19T10:19:07;7.97;;;6.22;;
40588;SDS011;26297;49.450;6.640;2022-08-19T10:22:11;6.43;;;5.57;;
40588;SDS011;26297;49.450;6.640;2022-08-19T10:25:16;11.23;;;6.75;;
40588;SDS011;26297;49.450;6.640;2022-08-19T10:28:20;9.50;;;7.35;;
40588;SDS011;26297;49.450;6.640;2022-08-19T10:31:24;7.50;;;6.57;;
40588;SDS011;26297;49.450;6.640;2022-08-19T10:34:30;8.30;;;6.80;;
40588;SDS011;26297;49.450;6.640;2022-08-19T10:37:34;7.95;;;6.38;;
40588;SDS011;26297;49.450;6.640;2022-08-19T10:40:39;7.95;;;6.40;;
40588;SDS011;26297;49.450;6.640;2022-08-19T10:43:42;8.32;;;6.43;;
40588;SDS011;26297;49.450;6.640;2022-08-19T10:46:47;7.45;;;6.00;;
40588;SDS011;26297;49.450;6.640;2022-08-19T10:49:50;7.68;;;6.40;;
40588;SDS011;26297;49.450;6.640;2022-08-19T10:53:13;9.02;;;6.65;;
40588;SDS011;26297;49.450;6.640;2022-08-19T10:56:16;6.80;;;6.00;;
40588;SDS011;26297;49.450;6.640;2022-08-19T10:59:39;6.38;;;5.57;;
40588;SDS011;26297;49.450;6.640;2022-08-19T11:02:42;6.18;;;5.57;;
40588;SDS011;26297;49.450;6.640;2022-08-19T11:05:46;5.18;;;4.72;;
40588;SDS011;26297;49.450;6.640;2022-08-19T11:08:59;7.78;;;6.97;;
40588;SDS011;26297;49.450;6.640;2022-08-19T11:12:02;6.15;;;5.63;;
40588;SDS011;26297;49.450;6.640;2022-08-19T11:15:06;7.97;;;6.75;;
40588;SDS011;26297;49.450;6.640;2022-08-19T11:18:13;7.07;;;6.38;;
40588;SDS011;26297;49.450;6.640;2022-08-19T11:21:18;7.07;;;6.15;;
40588;SDS011;26297;49.450;6.640;2022-08-19T11:27:30;5.10;;;4.50;;
40588;SDS011;26297;49.450;6.640;2022-08-19T11:30:33;6.35;;;5.65;;
40588;SDS011;26297;49.450;6.640;2022-08-19T11:33:36;5.82;;;5.32;;
40588;SDS011;26297;49.450;6.640;2022-08-19T11:36:41;6.75;;;5.05;;
40588;SDS011;26297;49.450;6.640;2022-08-19T11:39:47;5.70;;;4.97;;
40588;SDS011;26297;49.450;6.640;2022-08-19T11:42:50;5.95;;;5.22;;
40588;SDS011;26297;49.450;6.640;2022-08-19T11:45:59;6.50;;;5.68;;
40588;SDS011;26297;49.450;6.640;2022-08-19T11:52:12;4.60;;;4.20;;
40588;SDS011;26297;49.450;6.640;2022-08-19T11:55:15;9.85;;;5.28;;
40588;SDS011;26297;49.450;6.640;2022-08-19T11:58:18;7.60;;;5.00;;
40588;SDS011;26297;49.450;6.640;2022-08-19T12:01:22;6.65;;;5.57;;
40588;SDS011;26297;49.450;6.640;2022-08-19T12:04:26;5.20;;;4.70;;
40588;SDS011;26297;49.450;6.640;2022-08-19T12:07:29;4.78;;;4.38;;
40588;SDS011;26297;49.450;6.640;2022-08-19T12:10:36;5.55;;;4.53;;
40588;SDS011;26297;49.450;6.640;2022-08-19T12:13:39;4.57;;;4.18;;
40588;SDS011;26297;49.450;6.640;2022-08-19T12:16:44;5.88;;;4.50;;
40588;SDS011;26297;49.450;6.640;2022-08-19T12:19:49;4.53;;;4.10;;
40588;SDS011;26297;49.450;6.640;2022-08-19T12:22:52;6.05;;;4.55;;
40588;SDS011;26297;49.450;6.640;2022-08-19T12:25:56;4.53;;;4.13;;
40588;SDS011;26297;49.450;6.640;2022-08-19T12:28:59;8.63;;;4.47;;
40588;SDS011;26297;49.450;6.640;2022-08-19T12:32:03;5.15;;;3.55;;
40588;SDS011;26297;49.450;6.640;2022-08-19T12:35:06;3.97;;;3.58;;
40588;SDS011;26297;49.450;6.640;2022-08-19T12:38:14;3.75;;;3.45;;
40588;SDS011;26297;49.450;6.640;2022-08-19T12:41:17;4.90;;;3.70;;
40588;SDS011;26297;49.450;6.640;2022-08-19T12:44:23;4.18;;;3.22;;
40588;SDS011;26297;49.450;6.640;2022-08-19T12:47:26;3.53;;;3.22;;
40588;SDS011;26297;49.450;6.640;2022-08-19T12:50:29;3.35;;;2.65;;
40588;SDS011;26297;49.450;6.640;2022-08-19T12:53:33;6.10;;;3.35;;
40588;SDS011;26297;49.450;6.640;2022-08-19T12:56:36;2.97;;;2.67;;
40588;SDS011;26297;49.450;6.640;2022-08-19T12:59:40;3.20;;;2.90;;
40588;SDS011;26297;49.450;6.640;2022-08-19T13:02:45;3.33;;;2.72;;
40588;SDS011;26297;49.450;6.640;2022-08-19T13:05:50;2.92;;;2.47;;
40588;SDS011;26297;49.450;6.640;2022-08-19T13:08:54;3.47;;;3.17;;
40588;SDS011;26297;49.450;6.640;2022-08-19T13:11:58;2.65;;;2.45;;
40588;SDS011;26297;49.450;6.640;2022-08-19T13:15:05;2.80;;;2.45;;
40588;SDS011;26297;49.450;6.640;2022-08-19T13:18:08;3.25;;;2.25;;
40588;SDS011;26297;49.450;6.640;2022-08-19T13:21:12;3.60;;;2.20;;
40588;SDS011;26297;49.450;6.640;2022-08-19T13:24:17;2.13;;;2.00;;
40588;SDS011;26297;49.450;6.640;2022-08-19T13:27:20;2.67;;;1.80;;
40588;SDS011;26297;49.450;6.640;2022-08-19T13:30:23;2.38;;;2.17;;
40588;SDS011;26297;49.450;6.640;2022-08-19T13:33:45;2.20;;;2.00;;
40588;SDS011;26297;49.450;6.640;2022-08-19T13:36:48;3.15;;;2.85;;
40588;SDS011;26297;49.450;6.640;2022-08-19T13:39:51;3.03;;;2.53;;
40588;SDS011;26297;49.450;6.640;2022-08-19T13:42:54;3.13;;;2.83;;
40588;SDS011;26297;49.450;6.640;2022-08-19T13:45:58;2.50;;;2.30;;
40588;SDS011;26297;49.450;6.640;2022-08-19T13:49:01;3.05;;;2.75;;
40588;SDS011;26297;49.450;6.640;2022-08-19T13:52:04;2.88;;;2.47;;
40588;SDS011;26297;49.450;6.640;2022-08-19T13:55:08;3.10;;;2.80;;
40588;SDS011;26297;49.450;6.640;2022-08-19T13:58:13;3.85;;;2.53;;
40588;SDS011;26297;49.450;6.640;2022-08-19T14:01:20;3.10;;;2.80;;
40588;SDS011;26297;49.450;6.640;2022-08-19T14:04:24;4.07;;;2.83;;
40588;SDS011;26297;49.450;6.640;2022-08-19T14:07:27;2.90;;;2.67;;
40588;SDS011;26297;49.450;6.640;2022-08-19T14:10:30;3.13;;;2.80;;
40588;SDS011;26297;49.450;6.640;2022-08-19T14:13:34;3.92;;;3.22;;
40588;SDS011;26297;49.450;6.640;2022-08-19T14:16:37;3.28;;;2.88;;
40588;SDS011;26297;49.450;6.640;2022-08-19T14:19:41;3.08;;;2.60;;
40588;SDS011;26297;49.450;6.640;2022-08-19T14:22:45;3.85;;;2.45;;
40588;SDS011;26297;49.450;6.640;2022-08-19T14:25:50;2.70;;;2.50;;
40588;SDS011;26297;49.450;6.640;2022-08-19T14:28:53;2.95;;;2.63;;
40588;SDS011;26297;49.450;6.640;2022-08-19T14:31:59;3.50;;;2.90;;
40588;SDS011;26297;49.450;6.640;2022-08-19T14:35:03;2.85;;;2.42;;
40588;SDS011;26297;49.450;6.640;2022-08-19T14:38:14;3.58;;;2.95;;
40588;SDS011;26297;49.450;6.640;2022-08-19T14:41:20;6.25;;;3.67;;
40588;SDS011;26297;49.450;6.640;2022-08-19T14:44:26;4.78;;;3.67;;
40588;SDS011;26297;49.450;6.640;2022-08-19T14:47:29;4.47;;;3.25;;
40588;SDS011;26297;49.450;6.640;2022-08-19T14:50:33;4.80;;;3.67;;
40588;SDS011;26297;49.450;6.640;2022-08-19T14:53:38;4.70;;;3.65;;
40588;SDS011;26297;49.450;6.640;2022-08-19T14:56:41;4.60;;;3.42;;
40588;SDS011;26297;49.450;6.640;2022-08-19T14:59:45;4.13;;;3.35;;
40588;SDS011;26297;49.450;6.640;2022-08-19T15:02:49;3.50;;;3.20;;
40588;SDS011;26297;49.450;6.640;2022-08-19T15:05:53;5.97;;;3.03;;
40588;SDS011;26297;49.450;6.640;2022-08-19T15:08:58;3.75;;;3.35;;
40588;SDS011;26297;49.450;6.640;2022-08-19T15:12:03;4.05;;;3.40;;
40588;SDS011;26297;49.450;6.640;2022-08-19T15:15:07;3.17;;;2.88;;
40588;SDS011;26297;49.450;6.640;2022-08-19T15:18:15;5.43;;;2.97;;
40588;SDS011;26297;49.450;6.640;2022-08-19T15:21:17;2.85;;;2.65;;
40588;SDS011;26297;49.450;6.640;2022-08-19T15:24:21;4.53;;;2.83;;
40588;SDS011;26297;49.450;6.640;2022-08-19T15:27:27;3.25;;;2.90;;
40588;SDS011;26297;49.450;6.640;2022-08-19T15:30:30;2.75;;;2.00;;
40588;SDS011;26297;49.450;6.640;2022-08-19T15:33:35;2.35;;;1.80;;
40588;SDS011;26297;49.450;6.640;2022-08-19T15:36:39;3.20;;;2.05;;
40588;SDS011;26297;49.450;6.640;2022-08-19T15:39:42;2.97;;;2.70;;
40588;SDS011;26297;49.450;6.640;2022-08-19T15:42:48;2.03;;;1.85;;
40588;SDS011;26297;49.450;6.640;2022-08-19T15:45:51;1.60;;;1.50;;
40588;SDS011;26297;49.450;6.640;2022-08-19T15:48:54;3.10;;;1.77;;
40588;SDS011;26297;49.450;6.640;2022-08-19T15:51:58;6.30;;;1.48;;
40588;SDS011;26297;49.450;6.640;2022-08-19T15:55:03;1.38;;;1.08;;
40588;SDS011;26297;49.450;6.640;2022-08-19T15:58:10;1.30;;;1.10;;
40588;SDS011;26297;49.450;6.640;2022-08-19T16:01:34;1.45;;;1.10;;
40588;SDS011;26297;49.450;6.640;2022-08-19T16:04:56;1.70;;;1.10;;
40588;SDS011;26297;49.450;6.640;2022-08-19T16:08:18;1.38;;;0.98;;
40588;SDS011;26297;49.450;6.640;2022-08-19T16:11:24;1.60;;;1.25;;
40588;SDS011;26297;49.450;6.640;2022-08-19T16:14:29;1.33;;;1.10;;
40588;SDS011;26297;49.450;6.640;2022-08-19T16:17:36;1.08;;;0.95;;
40588;SDS011;26297;49.450;6.640;2022-08-19T16:20:39;1.20;;;1.10;;
40588;SDS011;26297;49.450;6.640;2022-08-19T16:23:43;0.90;;;0.80;;
40588;SDS011;26297;49.450;6.640;2022-08-19T16:26:48;1.17;;;0.80;;
40588;SDS011;26297;49.450;6.640;2022-08-19T16:29:51;3.22;;;0.82;;
40588;SDS011;26297;49.450;6.640;2022-08-19T16:32:55;1.80;;;0.60;;
40588;SDS011;26297;49.450;6.640;2022-08-19T16:35:58;0.52;;;0.52;;
40588;SDS011;26297;49.450;6.640;2022-08-19T16:39:01;0.38;;;0.38;;
40588;SDS011;26297;49.450;6.640;2022-08-19T16:42:05;0.70;;;0.50;;
40588;SDS011;26297;49.450;6.640;2022-08-19T16:45:10;0.77;;;0.47;;
40588;SDS011;26297;49.450;6.640;2022-08-19T16:48:13;0.45;;;0.35;;
40588;SDS011;26297;49.450;6.640;2022-08-19T16:51:16;0.22;;;0.22;;
40588;SDS011;26297;49.450;6.640;2022-08-19T16:54:20;1.05;;;0.68;;
40588;SDS011;26297;49.450;6.640;2022-08-19T16:57:22;0.40;;;0.40;;
40588;SDS011;26297;49.450;6.640;2022-08-19T17:00:25;1.35;;;0.40;;
40588;SDS011;26297;49.450;6.640;2022-08-19T17:03:28;1.73;;;0.52;;
40588;SDS011;26297;49.450;6.640;2022-08-19T17:06:32;3.90;;;0.63;;
40588;SDS011;26297;49.450;6.640;2022-08-19T17:09:40;0.63;;;0.63;;
40588;SDS011;26297;49.450;6.640;2022-08-19T17:12:43;0.60;;;0.60;;
40588;SDS011;26297;49.450;6.640;2022-08-19T17:15:46;1.15;;;0.25;;
40588;SDS011;26297;49.450;6.640;2022-08-19T17:18:50;0.82;;;0.60;;
40588;SDS011;26297;49.450;6.640;2022-08-19T17:21:55;0.50;;;0.50;;
40588;SDS011;26297;49.450;6.640;2022-08-19T17:24:59;0.93;;;0.60;;
40588;SDS011;26297;49.450;6.640;2022-08-19T17:31:14;0.77;;;0.70;;
40588;SDS011;26297;49.450;6.640;2022-08-19T17:34:21;0.95;;;0.73;;
40588;SDS011;26297;49.450;6.640;2022-08-19T17:37:25;0.32;;;0.32;;
40588;SDS011;26297;49.450;6.640;2022-08-19T17:40:34;0.45;;;0.45;;
40588;SDS011;26297;49.450;6.640;2022-08-19T17:43:37;0.98;;;0.50;;
40588;SDS011;26297;49.450;6.640;2022-08-19T17:46:44;0.57;;;0.57;;
40588;SDS011;26297;49.450;6.640;2022-08-19T17:49:47;1.58;;;0.50;;
40588;SDS011;26297;49.450;6.640;2022-08-19T17:52:50;0.47;;;0.47;;
40588;SDS011;26297;49.450;6.640;2022-08-19T17:55:54;1.48;;;0.50;;
40588;SDS011;26297;49.450;6.640;2022-08-19T17:58:58;0.28;;;0.28;;
40588;SDS011;26297;49.450;6.640;2022-08-19T18:02:02;0.30;;;0.30;;
40588;SDS011;26297;49.450;6.640;2022-08-19T18:05:06;0.65;;;0.40;;
40588;SDS011;26297;49.450;6.640;2022-08-19T18:08:09;0.40;;;0.40;;
40588;SDS011;26297;49.450;6.640;2022-08-19T18:11:15;0.50;;;0.43;;
40588;SDS011;26297;49.450;6.640;2022-08-19T18:14:19;0.25;;;0.25;;
40588;SDS011;26297;49.450;6.640;2022-08-19T18:17:29;0.60;;;0.50;;
40588;SDS011;26297;49.450;6.640;2022-08-19T18:20:33;0.30;;;0.30;;
40588;SDS011;26297;49.450;6.640;2022-08-19T18:23:36;2.35;;;0.30;;
40588;SDS011;26297;49.450;6.640;2022-08-19T18:26:40;0.20;;;0.20;;
40588;SDS011;26297;49.450;6.640;2022-08-19T18:29:46;1.58;;;0.43;;
40588;SDS011;26297;49.450;6.640;2022-08-19T18:32:51;0.40;;;0.20;;
40588;SDS011;26297;49.450;6.640;2022-08-19T18:35:57;0.45;;;0.40;;
40588;SDS011;26297;49.450;6.640;2022-08-19T18:39:01;0.30;;;0.22;;
40588;SDS011;26297;49.450;6.640;2022-08-19T18:42:24;0.32;;;0.30;;
40588;SDS011;26297;49.450;6.640;2022-08-19T18:45:46;0.40;;;0.22;;
40588;SDS011;26297;49.450;6.640;2022-08-19T18:49:08;0.20;;;0.20;;
40588;SDS011;26297;49.450;6.640;2022-08-19T18:52:17;0.57;;;0.30;;
40588;SDS011;26297;49.450;6.640;2022-08-19T18:55:21;1.77;;;0.50;;
40588;SDS011;26297;49.450;6.640;2022-08-19T18:58:26;0.68;;;0.20;;
40588;SDS011;26297;49.450;6.640;2022-08-19T19:01:36;1.27;;;0.20;;
40588;SDS011;26297;49.450;6.640;2022-08-19T19:04:41;0.30;;;0.28;;
40588;SDS011;26297;49.450;6.640;2022-08-19T19:07:45;0.35;;;0.22;;
40588;SDS011;26297;49.450;6.640;2022-08-19T19:10:48;0.40;;;0.30;;
40588;SDS011;26297;49.450;6.640;2022-08-19T19:13:51;0.38;;;0.38;;
40588;SDS011;26297;49.450;6.640;2022-08-19T19:16:55;0.90;;;0.65;;
40588;SDS011;26297;49.450;6.640;2022-08-19T19:20:00;0.50;;;0.38;;
40588;SDS011;26297;49.450;6.640;2022-08-19T19:23:04;1.80;;;0.30;;
40588;SDS011;26297;49.450;6.640;2022-08-19T19:26:08;0.30;;;0.30;;
40588;SDS011;26297;49.450;6.640;2022-08-19T19:29:15;0.57;;;0.40;;
40588;SDS011;26297;49.450;6.640;2022-08-19T19:32:26;0.65;;;0.55;;
40588;SDS011;26297;49.450;6.640;2022-08-19T19:35:34;0.30;;;0.30;;
40588;SDS011;26297;49.450;6.640;2022-08-19T19:38:40;1.08;;;0.60;;
40588;SDS011;26297;49.450;6.640;2022-08-19T19:41:46;0.50;;;0.50;;
40588;SDS011;26297;49.450;6.640;2022-08-19T19:44:50;1.00;;;0.50;;
40588;SDS011;26297;49.450;6.640;2022-08-19T19:48:05;0.65;;;0.30;;
40588;SDS011;26297;49.450;6.640;2022-08-19T19:51:09;3.85;;;0.70;;
40588;SDS011;26297;49.450;6.640;2022-08-19T19:57:58;1.65;;;0.40;;
40588;SDS011;26297;49.450;6.640;2022-08-19T20:01:11;1.00;;;0.50;;
40588;SDS011;26297;49.450;6.640;2022-08-19T20:04:14;0.63;;;0.63;;
40588;SDS011;26297;49.450;6.640;2022-08-19T20:07:21;0.80;;;0.80;;
40588;SDS011;26297;49.450;6.640;2022-08-19T20:11:01;1.10;;;0.57;;
40588;SDS011;26297;49.450;6.640;2022-08-19T20:17:18;0.70;;;0.68;;
40588;SDS011;26297;49.450;6.640;2022-08-19T20:20:21;0.55;;;0.30;;
40588;SDS011;26297;49.450;6.640;2022-08-19T20:23:25;0.43;;;0.40;;
40588;SDS011;26297;49.450;6.640;2022-08-19T20:26:29;1.13;;;1.00;;
40588;SDS011;26297;49.450;6.640;2022-08-19T20:29:32;0.70;;;0.70;;
40588;SDS011;26297;49.450;6.640;2022-08-19T20:32:35;0.55;;;0.40;;
40588;SDS011;26297;49.450;6.640;2022-08-19T20:35:39;0.30;;;0.30;;
40588;SDS011;26297;49.450;6.640;2022-08-19T20:38:42;1.08;;;0.50;;
40588;SDS011;26297;49.450;6.640;2022-08-19T20:41:45;0.50;;;0.50;;
40588;SDS011;26297;49.450;6.640;2022-08-19T20:44:49;0.80;;;0.60;;
40588;SDS011;26297;49.450;6.640;2022-08-19T20:47:52;0.60;;;0.60;;
40588;SDS011;26297;49.450;6.640;2022-08-19T20:50:56;0.40;;;0.38;;
40588;SDS011;26297;49.450;6.640;2022-08-19T20:54:00;2.90;;;0.40;;
40588;SDS011;26297;49.450;6.640;2022-08-19T20:57:04;0.88;;;0.88;;
